Time;durP1;ratioP1;P1;durP2;ratioP2;P2;SDS_P1;SDS_P2;PMS_P1;PMS_P2;Temp;Humidity;BMP_temperature;BMP_pressure;BME280_temperature;BME280_humidity;BME280_pressure;Samples;Min_cycle;Max_cycle;Signal;HPM_P1;HPM_P2
2022/10/20 00:02:18;;;;;;;12.70;7.88;;;;;;;12.16;69.82;101610.66;5032857;28;20055;-74
2022/10/20 00:04:45;;;;;;;11.15;8.05;;;;;;;12.15;69.78;101608.97;5026837;28;20049;-73
2022/10/20 00:07:11;;;;;;;14.65;8.02;;;;;;;12.16;69.62;101599.50;5027192;28;20795;-76
2022/10/20 00:09:36;;;;;;;11.70;7.72;;;;;;;12.13;69.65;101595.28;5026868;28;20029;-75
2022/10/20 00:12:01;;;;;;;15.10;7.65;;;;;;;12.12;69.79;101581.63;5028602;28;20043;-73
2022/10/20 00:14:26;;;;;;;10.82;7.53;;;;;;;12.09;69.70;101588.50;5024006;28;20075;-74
2022/10/20 00:16:52;;;;;;;16.70;8.70;;;;;;;12.06;69.84;101588.16;5025162;28;20038;-75
2022/10/20 00:19:17;;;;;;;12.32;8.40;;;;;;;12.07;69.85;101595.44;5026558;28;20029;-73
2022/10/20 00:21:42;;;;;;;12.50;8.40;;;;;;;12.07;70.11;101595.44;5020484;28;20034;-74
2022/10/20 00:24:08;;;;;;;14.13;8.50;;;;;;;12.07;69.96;101584.31;5025338;28;20140;-73
2022/10/20 00:26:33;;;;;;;11.80;8.02;;;;;;;12.04;69.92;101582.84;5026161;28;20095;-74
2022/10/20 00:29:01;;;;;;;16.00;8.95;;;;;;;12.04;70.36;101602.31;5028456;28;20029;-73
2022/10/20 00:31:26;;;;;;;11.27;8.63;;;;;;;12.01;70.31;101592.50;5024976;28;20030;-74
2022/10/20 00:33:52;;;;;;;12.20;8.85;;;;;;;11.99;70.53;101579.97;5020148;28;20026;-74
2022/10/20 00:36:19;;;;;;;14.82;8.35;;;;;;;11.98;70.41;101575.47;5027497;28;20474;-74
2022/10/20 00:38:45;;;;;;;11.32;8.95;;;;;;;11.99;70.84;101571.63;5021809;28;20411;-73
2022/10/20 00:41:13;;;;;;;11.63;9.10;;;;;;;11.98;70.84;101565.19;5019992;28;20033;-72
2022/10/20 00:43:46;;;;;;;11.27;8.90;;;;;;;11.97;70.72;101562.66;5024627;28;20503;-74
2022/10/20 00:46:16;;;;;;;11.85;9.05;;;;;;;11.97;71.05;101557.09;5022089;28;20044;-74
2022/10/20 00:48:44;;;;;;;11.27;8.55;;;;;;;11.98;71.01;101556.84;5021925;28;20064;-74
2022/10/20 00:51:14;;;;;;;12.70;9.52;;;;;;;11.95;70.85;101560.13;5022599;28;20087;-73
2022/10/20 00:53:39;;;;;;;12.20;9.48;;;;;;;11.97;71.34;101545.97;5027272;28;20055;-73
2022/10/20 00:56:05;;;;;;;16.00;9.30;;;;;;;11.99;70.94;101563.28;5025587;28;20033;-74
2022/10/20 00:58:33;;;;;;;13.43;8.98;;;;;;;11.95;71.03;101559.28;5020180;28;20543;-73
2022/10/20 01:00:59;;;;;;;12.88;9.23;;;;;;;11.97;71.29;101559.88;5026132;28;20551;-75
2022/10/20 01:03:40;;;;;;;14.38;9.35;;;;;;;11.94;71.53;101560.34;5029309;28;20025;-75
2022/10/20 01:06:06;;;;;;;12.50;9.80;;;;;;;11.92;71.43;101557.00;5027028;28;20037;-74
2022/10/20 01:08:31;;;;;;;12.95;10.43;;;;;;;11.93;71.70;101541.97;5027684;28;20033;-74
2022/10/20 01:10:59;;;;;;;14.90;9.57;;;;;;;11.91;71.63;101541.41;5027478;28;20033;-74
2022/10/20 01:13:50;;;;;;;15.57;9.27;;;;;;;11.98;71.25;101526.22;5012991;28;20033;-74
2022/10/20 01:16:38;;;;;;;13.20;10.00;;;;;;;11.91;71.57;101516.34;5028813;28;20053;-74
2022/10/20 01:19:51;;;;;;;10.73;9.52;;;;;;;11.99;71.25;101500.13;5018387;28;20050;-75
2022/10/20 01:22:41;;;;;;;13.85;9.82;;;;;;;11.97;71.64;101496.72;5047928;28;20392;-74
2022/10/20 01:25:15;;;;;;;18.27;10.70;;;;;;;11.96;71.51;101503.38;5026289;28;20587;-74
2022/10/20 01:28:26;;;;;;;14.77;10.15;;;;;;;11.99;71.68;101489.00;5023412;28;20026;-74
2022/10/20 01:30:57;;;;;;;13.73;10.50;;;;;;;11.93;71.62;101472.44;4998515;28;20051;-74
2022/10/20 01:33:45;;;;;;;13.95;10.40;;;;;;;11.93;71.76;101478.84;5030328;28;20486;-73
2022/10/20 01:36:31;;;;;;;14.23;9.85;;;;;;;11.91;72.09;101480.19;5023217;28;20475;-74
2022/10/20 01:39:04;;;;;;;16.08;9.43;;;;;;;11.86;72.04;101474.50;5030731;28;20041;-74
2022/10/20 01:41:41;;;;;;;14.32;10.05;;;;;;;11.88;72.22;101478.75;5029042;28;20037;-74
2022/10/20 01:44:10;;;;;;;14.55;10.40;;;;;;;11.83;72.27;101478.66;5029644;28;20037;-74
2022/10/20 01:46:38;;;;;;;14.98;10.57;;;;;;;11.80;72.52;101485.50;5030030;28;20029;-74
2022/10/20 01:49:06;;;;;;;14.20;11.05;;;;;;;11.81;72.30;101486.34;5030349;28;20037;-74
2022/10/20 01:51:32;;;;;;;16.30;11.15;;;;;;;11.77;72.12;101487.94;5021877;28;20026;-74
2022/10/20 01:53:57;;;;;;;14.30;10.98;;;;;;;11.76;72.72;101486.25;5028746;28;20036;-74
2022/10/20 01:56:56;;;;;;;16.75;9.27;;;;;;;11.80;72.23;101488.28;5014185;28;20030;-74
2022/10/20 01:59:41;;;;;;;13.52;10.70;;;;;;;11.79;72.66;101482.97;5035758;28;20147;-74
2022/10/20 02:02:40;;;;;;;13.85;10.43;;;;;;;11.83;72.17;101481.44;5030488;28;20103;-74
2022/10/20 02:05:27;;;;;;;17.17;10.90;;;;;;;11.78;72.51;101481.25;5028649;28;20083;-74
2022/10/20 02:08:09;;;;;;;15.50;10.90;;;;;;;11.79;72.35;101489.38;5023153;28;20040;-74
2022/10/20 02:10:48;;;;;;;14.43;10.77;;;;;;;11.81;72.15;101466.88;5030113;28;20461;-74
2022/10/20 02:13:16;;;;;;;14.88;11.10;;;;;;;11.71;72.44;101467.50;5030913;28;20037;-74
2022/10/20 02:15:47;;;;;;;14.05;10.32;;;;;;;11.67;72.52;101462.66;5027670;28;20049;-74
2022/10/20 02:18:18;;;;;;;15.98;10.55;;;;;;;11.70;72.58;101459.41;5025509;28;20033;-74
2022/10/20 02:20:47;;;;;;;19.08;11.60;;;;;;;11.70;72.68;101451.91;5020759;28;20064;-74
2022/10/20 02:23:13;;;;;;;14.23;11.23;;;;;;;11.73;72.44;101448.63;5013046;28;20512;-74
2022/10/20 02:25:39;;;;;;;16.17;11.32;;;;;;;11.68;72.29;101445.75;5028151;28;20037;-74
2022/10/20 02:28:09;;;;;;;15.43;11.43;;;;;;;11.61;72.89;101436.69;5029502;28;20041;-74
2022/10/20 02:30:36;;;;;;;18.30;11.05;;;;;;;11.61;72.55;101436.69;5023324;28;20032;-74
2022/10/20 02:33:02;;;;;;;16.40;11.60;;;;;;;11.69;72.63;101424.34;5031271;28;20029;-74
2022/10/20 02:35:31;;;;;;;14.25;11.35;;;;;;;11.64;72.45;101418.69;5030844;28;20045;-74
2022/10/20 02:37:57;;;;;;;15.80;11.85;;;;;;;11.65;72.50;101412.88;5022729;28;20473;-74
2022/10/20 02:40:23;;;;;;;15.55;11.70;;;;;;;11.66;72.89;101403.44;5030295;28;20033;-75
2022/10/20 02:42:48;;;;;;;15.65;11.98;;;;;;;11.66;72.34;101397.03;5022013;28;20036;-74
2022/10/20 02:45:14;;;;;;;13.55;11.15;;;;;;;11.65;72.42;101392.56;5027027;28;20128;-74
2022/10/20 02:47:39;;;;;;;16.35;11.77;;;;;;;11.63;72.33;101386.41;5031707;28;20030;-74
2022/10/20 02:50:05;;;;;;;17.40;12.20;;;;;;;11.62;72.68;101374.44;5029211;28;20037;-74
2022/10/20 02:52:30;;;;;;;13.55;11.52;;;;;;;11.67;72.45;101368.13;5026070;28;20071;-74
2022/10/20 02:54:56;;;;;;;19.15;11.25;;;;;;;11.66;72.70;101361.72;5028172;28;20381;-74
2022/10/20 02:57:21;;;;;;;16.00;11.30;;;;;;;11.63;72.76;101369.72;5031711;28;20022;-74
2022/10/20 02:59:46;;;;;;;17.63;12.20;;;;;;;11.64;72.94;101360.31;5029215;28;20033;-74
2022/10/20 03:02:12;;;;;;;15.70;12.18;;;;;;;11.63;73.06;101348.34;5028396;28;20571;-74
2022/10/20 03:04:37;;;;;;;15.18;11.70;;;;;;;11.63;72.77;101350.25;5030949;28;20029;-74
2022/10/20 03:07:02;;;;;;;17.17;12.73;;;;;;;11.62;72.89;101343.84;5031442;28;20029;-74
2022/10/20 03:09:28;;;;;;;16.50;12.52;;;;;;;11.62;72.90;101346.63;5032814;28;20033;-74
2022/10/20 03:11:53;;;;;;;18.65;13.85;;;;;;;11.61;73.60;101341.31;5033612;28;20037;-74
2022/10/20 03:14:18;;;;;;;18.55;13.38;;;;;;;11.64;73.38;101335.28;5033326;28;20116;-74
2022/10/20 03:16:43;;;;;;;19.45;13.60;;;;;;;11.66;73.43;101335.84;5033932;28;20448;-73
2022/10/20 03:19:09;;;;;;;16.52;13.80;;;;;;;11.65;73.51;101335.00;5033444;28;20071;-74
2022/10/20 03:21:34;;;;;;;16.45;12.57;;;;;;;11.65;73.85;101331.41;5033870;28;20072;-74
2022/10/20 03:23:59;;;;;;;19.20;13.75;;;;;;;11.66;73.85;101328.34;5033279;28;20381;-74
2022/10/20 03:26:25;;;;;;;19.83;15.02;;;;;;;11.66;73.84;101325.56;5031490;28;20131;-74
2022/10/20 03:28:50;;;;;;;19.27;13.68;;;;;;;11.67;74.49;101318.06;5033422;28;20029;-75
2022/10/20 03:31:15;;;;;;;19.60;13.98;;;;;;;11.69;74.18;101324.25;5024269;28;20052;-74
2022/10/20 03:33:41;;;;;;;19.15;13.88;;;;;;;11.65;74.35;101315.56;5032380;28;20033;-75
2022/10/20 03:36:06;;;;;;;22.30;15.30;;;;;;;11.63;74.70;101311.31;5033781;28;20091;-75
2022/10/20 03:38:32;;;;;;;21.02;14.70;;;;;;;11.66;74.92;101320.00;5032639;28;20033;-74
2022/10/20 03:40:57;;;;;;;19.85;14.32;;;;;;;11.65;74.71;101311.94;5030111;28;20057;-74
2022/10/20 03:43:22;;;;;;;20.02;15.30;;;;;;;11.67;75.16;101309.72;5035239;28;20025;-74
2022/10/20 03:45:48;;;;;;;19.42;14.70;;;;;;;11.67;74.94;101309.72;5032883;28;20022;-74
2022/10/20 03:48:13;;;;;;;21.92;15.95;;;;;;;11.66;75.48;101310.84;5033426;28;20523;-74
2022/10/20 03:50:40;;;;;;;22.10;16.00;;;;;;;11.66;75.20;101308.06;5028699;28;20030;-74
2022/10/20 03:53:06;;;;;;;20.70;14.90;;;;;;;11.66;75.53;101295.00;5033200;28;20036;-74
2022/10/20 03:55:31;;;;;;;22.25;15.85;;;;;;;11.69;75.40;101285.31;5031155;28;20037;-74
2022/10/20 03:57:56;;;;;;;21.13;16.80;;;;;;;11.66;75.68;101292.22;5029605;28;20068;-74
2022/10/20 04:00:22;;;;;;;17.50;14.88;;;;;;;11.67;75.73;101287.47;5022851;28;20035;-74
2022/10/20 04:02:47;;;;;;;22.23;16.08;;;;;;;11.68;75.64;101292.81;5025238;28;20056;-74
2022/10/20 04:05:16;;;;;;;24.17;16.05;;;;;;;11.69;75.89;101288.94;5013724;28;20037;-74
2022/10/20 04:07:41;;;;;;;20.17;15.50;;;;;;;11.73;75.74;101292.91;5027674;28;20106;-74
2022/10/20 04:10:08;;;;;;;22.92;16.58;;;;;;;11.72;75.82;101288.44;5027951;28;20116;-74
2022/10/20 04:12:33;;;;;;;21.50;15.23;;;;;;;11.73;75.87;101280.94;5013834;28;20034;-74
2022/10/20 04:14:58;;;;;;;19.88;16.00;;;;;;;11.74;75.82;101288.19;5012217;28;20061;-74
2022/10/20 04:17:24;;;;;;;21.33;16.40;;;;;;;11.73;76.04;101273.44;5013491;28;20029;-74
2022/10/20 04:19:49;;;;;;;21.77;16.52;;;;;;;11.75;75.79;101270.38;5012346;28;20687;-74
2022/10/20 04:22:14;;;;;;;20.80;16.35;;;;;;;11.73;76.59;101261.47;5012627;28;20034;-74
2022/10/20 04:24:40;;;;;;;23.27;16.77;;;;;;;11.75;76.70;101268.47;5027238;28;20025;-74
2022/10/20 04:27:05;;;;;;;22.05;16.92;;;;;;;11.77;76.43;101262.66;5029224;28;20399;-74
2022/10/20 04:29:30;;;;;;;22.42;16.38;;;;;;;11.79;76.54;101257.69;5012781;28;20172;-74
2022/10/20 04:31:56;;;;;;;21.70;15.55;;;;;;;11.82;76.70;101254.38;5015610;28;20025;-74
2022/10/20 04:34:21;;;;;;;22.10;16.77;;;;;;;11.79;77.37;101243.78;5031763;28;20037;-74
2022/10/20 04:36:46;;;;;;;21.77;16.48;;;;;;;11.76;77.61;101241.50;5029730;28;20028;-74
2022/10/20 04:39:12;;;;;;;21.45;15.68;;;;;;;11.78;77.67;101250.44;5031034;28;20025;-74
2022/10/20 04:41:37;;;;;;;23.40;15.98;;;;;;;11.80;77.31;101249.09;5031085;28;20567;-74
2022/10/20 04:44:02;;;;;;;21.77;15.95;;;;;;;11.83;77.27;101242.22;5031307;28;20135;-74
2022/10/20 04:46:27;;;;;;;22.52;15.65;;;;;;;11.84;77.40;101235.56;5032190;28;20037;-74
2022/10/20 04:48:53;;;;;;;22.02;16.50;;;;;;;11.81;77.71;101236.03;5024588;28;20473;-74
2022/10/20 04:51:18;;;;;;;22.88;15.98;;;;;;;11.82;77.65;101215.44;5024849;28;20163;-74
2022/10/20 04:53:44;;;;;;;20.17;15.60;;;;;;;11.85;77.61;101220.56;5031552;28;20057;-74
2022/10/20 04:56:12;;;;;;;23.52;15.40;;;;;;;11.85;77.81;101225.28;5029372;28;20071;-74
2022/10/20 04:58:38;;;;;;;24.48;16.25;;;;;;;11.83;77.84;101217.19;5030539;28;20048;-74
2022/10/20 05:01:07;;;;;;;19.95;15.80;;;;;;;11.84;77.89;101213.31;5027436;28;20038;-74
2022/10/20 05:03:33;;;;;;;23.48;15.43;;;;;;;11.87;77.95;101217.50;5026020;28;20033;-74
2022/10/20 05:06:10;;;;;;;20.17;15.18;;;;;;;11.90;77.75;101205.88;5020225;28;20397;-74
2022/10/20 05:08:36;;;;;;;21.92;15.70;;;;;;;11.93;77.72;101219.28;5031089;28;20126;-74
2022/10/20 05:11:01;;;;;;;20.95;15.20;;;;;;;11.93;77.44;101234.03;5027175;28;20063;-74
2022/10/20 05:13:27;;;;;;;19.67;14.25;;;;;;;11.93;77.30;101228.47;5030240;28;20033;-74
2022/10/20 05:15:52;;;;;;;24.73;15.55;;;;;;;11.96;77.18;101233.53;5030516;28;20127;-74
2022/10/20 05:18:18;;;;;;;20.00;15.18;;;;;;;11.97;77.71;101209.34;5018617;28;20018;-74
2022/10/20 05:20:43;;;;;;;22.13;16.17;;;;;;;11.97;77.22;101190.69;5027016;28;20526;-74
2022/10/20 05:23:08;;;;;;;21.58;14.65;;;;;;;12.00;77.37;101189.38;5030842;28;20040;-74
2022/10/20 05:25:37;;;;;;;20.08;15.18;;;;;;;11.97;77.33;101190.69;5030706;28;20033;-74
2022/10/20 05:28:04;;;;;;;20.40;15.43;;;;;;;11.97;77.41;101203.78;5030261;28;20026;-74
2022/10/20 05:30:29;;;;;;;18.67;14.23;;;;;;;11.96;77.35;101208.50;5027176;28;20025;-75
2022/10/20 05:32:54;;;;;;;21.63;15.63;;;;;;;11.97;77.22;101204.59;5029962;28;20030;-74
2022/10/20 05:35:19;;;;;;;21.88;15.23;;;;;;;11.97;77.50;101204.59;5030158;28;20121;-74
2022/10/20 05:37:45;;;;;;;20.35;14.95;;;;;;;11.98;78.01;101217.41;5029931;28;20033;-74
2022/10/20 05:40:10;;;;;;;21.95;15.25;;;;;;;11.98;77.17;101199.88;5030847;28;20114;-74
2022/10/20 05:42:36;;;;;;;18.35;14.93;;;;;;;11.99;77.23;101182.13;5028506;28;20037;-74
2022/10/20 05:45:01;;;;;;;18.08;14.68;;;;;;;12.01;77.08;101177.97;5030964;28;20029;-74
2022/10/20 05:47:26;;;;;;;18.88;15.75;;;;;;;11.99;77.14;101182.97;5031076;28;20499;-74
2022/10/20 05:49:51;;;;;;;20.05;15.13;;;;;;;11.99;77.40;101188.53;5029967;28;20041;-74
2022/10/20 05:52:17;;;;;;;23.02;15.82;;;;;;;11.96;77.36;101199.31;5029031;28;20400;-74
2022/10/20 05:54:42;;;;;;;19.58;14.93;;;;;;;11.95;77.04;101198.47;5030387;28;20044;-74
2022/10/20 05:57:07;;;;;;;19.02;14.75;;;;;;;11.96;77.28;101199.31;5026111;28;20026;-74
2022/10/20 05:59:33;;;;;;;21.92;15.32;;;;;;;11.96;77.51;101202.94;5030043;28;20030;-74
2022/10/20 06:01:58;;;;;;;20.02;16.15;;;;;;;11.94;77.17;101193.16;5017858;28;20037;-74
2022/10/20 06:04:23;;;;;;;21.85;15.38;;;;;;;11.98;77.16;101197.94;5019329;28;20037;-75
2022/10/20 06:06:50;;;;;;;18.63;15.50;;;;;;;11.94;77.47;101196.75;5026875;28;20025;-75
2022/10/20 06:09:17;;;;;;;21.38;15.93;;;;;;;11.96;77.72;101197.38;5027570;28;20065;-73
2022/10/20 06:11:42;;;;;;;19.85;15.43;;;;;;;11.91;77.47;101197.28;5028104;28;20017;-73
2022/10/20 06:14:08;;;;;;;22.83;16.75;;;;;;;11.94;77.54;101191.19;5027526;28;20354;-73
2022/10/20 06:16:34;;;;;;;23.52;15.38;;;;;;;11.97;77.38;101192.66;5027840;28;20072;-73
2022/10/20 06:19:00;;;;;;;20.88;16.00;;;;;;;11.97;77.47;101195.44;5027788;28;20026;-74
2022/10/20 06:21:28;;;;;;;21.67;15.13;;;;;;;11.98;77.41;101203.50;5024299;28;20029;-73
2022/10/20 06:23:53;;;;;;;22.20;14.73;;;;;;;11.98;77.31;101202.66;5029153;28;20420;-73
2022/10/20 06:26:24;;;;;;;22.25;17.50;;;;;;;11.98;77.43;101205.44;5024852;28;20022;-76
2022/10/20 06:28:52;;;;;;;19.60;15.07;;;;;;;11.98;77.74;101213.78;5023518;28;20078;-76
2022/10/20 06:31:18;;;;;;;19.88;15.02;;;;;;;11.99;77.61;101196.88;5031188;28;20112;-77
2022/10/20 06:33:44;;;;;;;18.63;15.27;;;;;;;11.99;77.63;101198.81;5028507;28;20075;-76
2022/10/20 06:36:10;;;;;;;21.15;16.23;;;;;;;11.97;77.69;101199.03;5025926;28;20477;-76
2022/10/20 06:38:37;;;;;;;21.55;15.63;;;;;;;11.99;77.46;101190.47;5026877;28;20036;-75
2022/10/20 06:41:08;;;;;;;19.83;15.75;;;;;;;11.98;77.94;101184.03;5026147;28;20104;-76
2022/10/20 06:43:33;;;;;;;21.02;15.50;;;;;;;12.00;77.58;101181.84;5018394;28;20303;-75
2022/10/20 06:46:01;;;;;;;26.85;15.15;;;;;;;12.00;77.86;101190.19;5035173;28;20570;-74
2022/10/20 06:48:27;;;;;;;22.73;14.82;;;;;;;12.01;77.62;101189.09;5035029;28;20029;-73
2022/10/20 06:50:56;;;;;;;20.30;15.00;;;;;;;12.03;77.70;101175.78;5032639;28;20044;-74
2022/10/20 06:53:22;;;;;;;22.25;15.02;;;;;;;12.02;77.91;101182.47;5032313;28;20025;-72
2022/10/20 06:56:05;;;;;;;20.80;15.32;;;;;;;12.07;77.67;101180.84;5021397;28;20041;-74
2022/10/20 06:58:32;;;;;;;19.70;15.20;;;;;;;12.03;77.87;101180.50;5029102;28;20037;-77
2022/10/20 07:01:13;;;;;;;19.80;15.40;;;;;;;12.09;77.69;101176.69;5024402;28;20026;-73
2022/10/20 07:03:39;;;;;;;18.13;15.45;;;;;;;12.09;77.96;101157.22;5022151;28;20037;-73
2022/10/20 07:06:07;;;;;;;20.77;15.32;;;;;;;12.09;77.80;101161.94;5024651;28;20037;-75
2022/10/20 07:08:34;;;;;;;22.67;15.48;;;;;;;12.09;77.97;101161.94;5028174;28;20083;-74
2022/10/20 07:11:01;;;;;;;22.83;15.85;;;;;;;12.10;77.82;101171.97;5026627;28;20503;-74
2022/10/20 07:13:28;;;;;;;19.05;14.65;;;;;;;12.12;77.62;101178.13;5017882;28;20507;-78
2022/10/20 07:15:55;;;;;;;19.73;15.55;;;;;;;12.11;77.94;101173.66;5027268;28;20095;-78
2022/10/20 07:18:20;;;;;;;19.33;14.93;;;;;;;12.13;78.11;101177.88;5029757;28;20121;-75
2022/10/20 07:20:46;;;;;;;25.08;14.93;;;;;;;12.15;77.91;101170.13;5029493;28;20535;-74
2022/10/20 07:23:11;;;;;;;19.75;15.43;;;;;;;12.17;77.75;101178.19;5029033;28;20033;-78
2022/10/20 07:25:36;;;;;;;21.65;15.10;;;;;;;12.18;77.92;101177.09;5031618;28;20017;-76
2022/10/20 07:28:02;;;;;;;21.38;14.80;;;;;;;12.19;77.92;101164.88;5032000;28;20366;-77
2022/10/20 07:30:27;;;;;;;20.65;14.95;;;;;;;12.20;77.57;101172.97;5032672;28;20059;-79
2022/10/20 07:32:52;;;;;;;21.75;14.52;;;;;;;12.21;77.94;101183.00;5026547;28;20080;-74
2022/10/20 07:35:18;;;;;;;20.05;15.27;;;;;;;12.20;77.78;101186.03;5031774;28;20128;-75
2022/10/20 07:37:43;;;;;;;19.00;14.82;;;;;;;12.22;77.72;101187.47;5030460;28;20065;-75
2022/10/20 07:40:09;;;;;;;20.65;14.27;;;;;;;12.24;77.73;101181.66;5031139;28;20036;-76
2022/10/20 07:42:34;;;;;;;19.30;14.27;;;;;;;12.26;78.15;101183.09;5031039;28;20026;-76
2022/10/20 07:44:59;;;;;;;19.60;14.57;;;;;;;12.27;78.08;101181.97;5031172;28;20034;-75
2022/10/20 07:47:25;;;;;;;17.58;14.07;;;;;;;12.33;77.72;101184.81;5031153;28;20494;-74
2022/10/20 07:49:50;;;;;;;21.30;15.38;;;;;;;12.35;77.51;101191.00;5032569;28;20044;-72
2022/10/20 07:52:15;;;;;;;18.25;14.48;;;;;;;12.34;77.65;101176.25;5030090;28;20032;-71
2022/10/20 07:54:41;;;;;;;20.75;14.60;;;;;;;12.39;77.53;101173.50;5018730;28;20038;-73
2022/10/20 07:57:06;;;;;;;21.15;15.02;;;;;;;12.42;77.55;101174.94;5021555;28;20041;-73
2022/10/20 07:59:31;;;;;;;20.10;14.80;;;;;;;12.44;77.78;101173.56;5029974;28;20033;-74
2022/10/20 08:01:57;;;;;;;20.33;14.68;;;;;;;12.47;77.46;101187.00;5023947;28;20100;-72
2022/10/20 08:04:22;;;;;;;24.90;13.52;;;;;;;12.47;77.61;101181.41;5025341;28;20034;-72
2022/10/20 08:06:47;;;;;;;17.52;14.88;;;;;;;12.50;77.83;101171.72;5028572;28;20028;-70
2022/10/20 08:09:12;;;;;;;20.48;15.05;;;;;;;12.52;77.84;101164.78;5019468;28;20428;-70
2022/10/20 08:11:38;;;;;;;18.17;14.60;;;;;;;12.56;77.38;101167.03;5030548;28;20839;-71
2022/10/20 08:14:03;;;;;;;22.60;14.80;;;;;;;12.57;77.33;101180.69;5030819;28;20037;-71
2022/10/20 08:16:29;;;;;;;19.70;15.55;;;;;;;12.62;77.55;101166.88;5030314;28;20053;-71
2022/10/20 08:18:54;;;;;;;19.45;14.65;;;;;;;12.65;77.72;101171.88;5017587;28;20034;-64
2022/10/20 08:21:21;;;;;;;19.52;14.68;;;;;;;12.65;77.31;101169.09;5010634;28;20061;-65
2022/10/20 08:23:50;;;;;;;21.48;14.73;;;;;;;12.66;77.70;101172.75;5026964;28;20030;-70
2022/10/20 08:26:19;;;;;;;18.13;14.50;;;;;;;12.64;77.75;101167.44;5030981;28;20060;-70
2022/10/20 08:28:45;;;;;;;20.83;15.88;;;;;;;12.67;77.47;101160.50;5028607;28;20038;-70
2022/10/20 08:31:10;;;;;;;21.20;15.30;;;;;;;12.67;77.44;101171.66;5028147;28;20079;-71
2022/10/20 08:33:35;;;;;;;16.67;13.57;;;;;;;12.68;77.28;101167.75;5025881;28;20055;-70
2022/10/20 08:36:03;;;;;;;17.67;14.77;;;;;;;12.70;77.83;101169.19;5027715;28;20040;-71
2022/10/20 08:38:29;;;;;;;20.92;15.18;;;;;;;12.69;77.40;101170.28;5029184;28;20040;-71
2022/10/20 08:40:54;;;;;;;20.98;15.48;;;;;;;12.72;77.82;101177.28;5028482;28;20377;-70
2022/10/20 08:43:20;;;;;;;19.92;15.00;;;;;;;12.77;78.08;101167.06;5029329;28;20030;-70
2022/10/20 08:45:45;;;;;;;21.27;15.15;;;;;;;12.88;77.84;101158.78;5027682;28;20499;-70
2022/10/20 08:48:21;;;;;;;19.75;15.52;;;;;;;13.00;77.81;101168.69;5028261;28;20030;-70
2022/10/20 08:50:49;;;;;;;17.20;14.40;;;;;;;13.02;77.46;101165.66;5017138;28;20026;-70
2022/10/20 08:53:17;;;;;;;19.48;15.07;;;;;;;13.05;77.14;101153.13;5027151;28;20037;-68
2022/10/20 08:55:43;;;;;;;17.80;14.65;;;;;;;13.09;76.93;101145.94;5023789;28;20389;-71
2022/10/20 08:58:13;;;;;;;19.13;15.48;;;;;;;13.18;77.31;101138.78;5022102;28;20044;-71
2022/10/20 09:00:40;;;;;;;21.17;14.52;;;;;;;13.23;77.28;101134.13;5027847;28;20032;-72
2022/10/20 09:03:20;;;;;;;19.77;15.02;;;;;;;13.26;76.74;101138.34;5026712;28;20033;-72
2022/10/20 09:05:52;;;;;;;22.15;14.73;;;;;;;13.27;76.95;101140.84;5022486;28;20034;-71
2022/10/20 09:08:20;;;;;;;20.67;15.18;;;;;;;13.26;77.11;101146.69;5025095;28;20069;-69
2022/10/20 09:10:51;;;;;;;20.00;13.85;;;;;;;13.27;77.04;101140.00;5020763;28;20152;-76
2022/10/20 09:13:22;;;;;;;18.73;14.27;;;;;;;13.25;77.61;101142.25;5024294;28;20025;-72
2022/10/20 09:15:52;;;;;;;19.42;14.10;;;;;;;13.27;77.13;101143.63;5016993;28;20052;-72
2022/10/20 09:18:18;;;;;;;20.20;14.52;;;;;;;13.27;77.59;101143.63;5012465;28;20037;-73
2022/10/20 09:20:55;;;;;;;16.65;14.02;;;;;;;13.27;77.53;101145.59;5030967;28;20033;-73
2022/10/20 09:23:42;;;;;;;17.48;13.63;;;;;;;13.29;77.36;101135.03;5029703;28;20028;-70
2022/10/20 09:26:14;;;;;;;19.52;14.20;;;;;;;13.29;77.73;101146.19;5029763;28;20494;-72
2022/10/20 09:28:40;;;;;;;17.45;14.00;;;;;;;13.30;77.43;101144.22;5030861;28;20439;-73
2022/10/20 09:31:22;;;;;;;16.70;14.10;;;;;;;13.30;77.43;101136.69;5013398;28;20062;-72
2022/10/20 09:33:47;;;;;;;16.25;14.13;;;;;;;13.31;77.79;101129.19;5010860;28;20082;-72
2022/10/20 09:36:17;;;;;;;16.92;13.57;;;;;;;13.32;78.11;101130.84;5011380;28;20446;-72
2022/10/20 09:38:45;;;;;;;20.50;13.95;;;;;;;13.32;77.90;101154.00;5010592;28;20026;-72
2022/10/20 09:41:18;;;;;;;17.60;13.10;;;;;;;13.33;78.49;101141.75;5027739;28;20021;-72
2022/10/20 09:44:00;;;;;;;16.65;14.63;;;;;;;13.35;78.13;101158.22;5029660;28;20763;-72
2022/10/20 09:46:29;;;;;;;19.92;14.15;;;;;;;13.34;78.42;101157.38;5024561;28;20112;-72
2022/10/20 09:48:55;;;;;;;19.45;14.60;;;;;;;13.34;77.97;101156.53;5017192;28;20129;-72
2022/10/20 09:51:24;;;;;;;21.75;15.20;;;;;;;13.34;78.70;101149.00;5030908;28;20120;-72
2022/10/20 09:53:55;;;;;;;18.50;14.70;;;;;;;13.36;78.26;101146.81;5029550;28;20032;-72
2022/10/20 09:56:34;;;;;;;20.75;14.73;;;;;;;13.37;78.36;101130.91;5030899;28;20041;-72
2022/10/20 09:59:01;;;;;;;17.77;13.70;;;;;;;13.37;78.57;101130.91;5030349;28;20022;-72
2022/10/20 10:01:26;;;;;;;18.80;13.63;;;;;;;13.36;78.72;101127.28;5011315;28;20056;-72
2022/10/20 10:03:58;;;;;;;20.92;13.70;;;;;;;13.38;78.83;101132.59;5011058;28;20057;-72
2022/10/20 10:06:37;;;;;;;17.13;14.10;;;;;;;13.39;79.46;101135.09;5010415;28;20033;-72
2022/10/20 10:09:24;;;;;;;16.35;14.27;;;;;;;13.41;79.17;101135.69;5029277;28;20080;-72
2022/10/20 10:12:01;;;;;;;18.05;13.52;;;;;;;13.42;80.54;101134.59;5030371;28;20047;-72
2022/10/20 10:14:27;;;;;;;18.27;14.07;;;;;;;13.43;80.78;101139.03;5026060;28;20033;-72
2022/10/20 10:16:53;;;;;;;21.40;14.98;;;;;;;13.42;81.68;101137.38;5021559;28;20401;-72
2022/10/20 10:19:24;;;;;;;20.83;15.20;;;;;;;13.43;81.48;101132.63;5020876;28;20044;-71
2022/10/20 10:21:55;;;;;;;19.92;15.30;;;;;;;13.40;82.31;101125.66;5030364;28;20034;-71
2022/10/20 10:24:36;;;;;;;18.38;14.70;;;;;;;13.42;82.72;101117.00;5020725;28;20040;-71
2022/10/20 10:27:02;;;;;;;23.53;15.50;;;;;;;13.43;82.30;101113.94;5027538;28;20049;-75
2022/10/20 10:29:35;;;;;;;23.65;15.63;;;;;;;13.45;82.31;101116.50;5016659;28;20293;-74
2022/10/20 10:32:26;;;;;;;19.85;15.18;;;;;;;13.44;82.23;101114.78;5024290;28;20039;-75
2022/10/20 10:35:07;;;;;;;22.65;15.68;;;;;;;13.44;83.07;101101.72;5027213;28;20933;-70
2022/10/20 10:37:33;;;;;;;20.15;14.52;;;;;;;13.45;83.44;101096.97;5032570;28;20029;-71
2022/10/20 10:39:58;;;;;;;25.50;15.80;;;;;;;13.45;83.87;101083.88;5030464;28;20481;-71
2022/10/20 10:42:49;;;;;;;22.50;16.02;;;;;;;13.48;83.23;101097.28;5031145;28;20083;-74
2022/10/20 10:45:44;;;;;;;19.70;15.52;;;;;;;13.47;83.62;101109.53;5020732;28;20045;-73
2022/10/20 10:48:34;;;;;;;22.50;16.27;;;;;;;13.47;83.94;101101.16;5031930;28;20025;-72
2022/10/20 10:51:05;;;;;;;20.48;16.02;;;;;;;13.46;83.99;101109.78;5031613;28;20033;-72
2022/10/20 10:53:39;;;;;;;22.90;15.85;;;;;;;13.47;85.09;101112.31;5026407;28;20551;-73
2022/10/20 10:56:16;;;;;;;22.98;16.70;;;;;;;13.46;85.20;101116.22;5024135;28;20069;-71
2022/10/20 10:58:50;;;;;;;24.10;17.17;;;;;;;13.46;85.85;101113.44;5030738;28;20029;-69
2022/10/20 11:01:39;;;;;;;22.48;15.90;;;;;;;13.46;85.46;101102.28;5022424;28;20496;-70
2022/10/20 11:04:11;;;;;;;21.55;16.48;;;;;;;13.46;85.50;101096.69;5012795;28;20022;-74
2022/10/20 11:06:48;;;;;;;25.00;17.15;;;;;;;13.47;85.80;101087.22;5014362;28;20449;-71
2022/10/20 11:09:37;;;;;;;22.85;17.95;;;;;;;13.49;85.92;101073.84;5021920;28;20515;-71
2022/10/20 11:12:19;;;;;;;28.00;18.65;;;;;;;13.49;85.91;101073.84;4986906;28;20115;-69
2022/10/20 11:14:56;;;;;;;21.40;16.05;;;;;;;13.50;86.24;101072.75;5017469;28;20041;-70
2022/10/20 11:17:40;;;;;;;22.50;17.20;;;;;;;13.50;86.19;101078.31;5012844;28;20481;-71
2022/10/20 11:20:16;;;;;;;24.58;17.27;;;;;;;13.51;86.55;101071.63;5026005;28;20079;-73